createdAt,value
2022-11-03T00:01:41.489Z,100.00
2022-11-03T00:04:12.005Z,100.00
2022-11-03T00:06:41.715Z,100.00
2022-11-03T00:09:12.385Z,100.00
2022-11-03T00:11:43.240Z,100.00
2022-11-03T00:14:13.027Z,100.00
2022-11-03T00:16:44.203Z,100.00
2022-11-03T00:19:14.716Z,100.00
2022-11-03T00:21:44.153Z,100.00
2022-11-03T00:24:14.210Z,100.00
2022-11-03T00:26:43.607Z,100.00
2022-11-03T00:29:14.768Z,100.00
2022-11-03T00:31:46.958Z,100.00
2022-11-03T00:34:15.309Z,100.00
2022-11-03T00:36:46.084Z,100.00
2022-11-03T00:39:14.499Z,100.00
2022-11-03T00:41:43.947Z,100.00
2022-11-03T00:44:13.476Z,100.00
2022-11-03T00:46:45.236Z,100.00
2022-11-03T00:49:13.635Z,100.00
2022-11-03T00:51:42.167Z,100.00
2022-11-03T00:54:10.876Z,100.00
2022-11-03T00:56:41.028Z,100.00
2022-11-03T00:59:11.984Z,100.00
2022-11-03T01:01:45.887Z,100.00
2022-11-03T01:04:36.064Z,100.00
2022-11-03T01:07:06.125Z,100.00
2022-11-03T01:09:38.103Z,100.00
2022-11-03T01:12:09.950Z,100.00
2022-11-03T01:14:41.666Z,100.00
2022-11-03T01:17:14.952Z,100.00
2022-11-03T01:19:45.456Z,100.00
2022-11-03T01:22:15.599Z,100.00
2022-11-03T01:24:45.058Z,100.00
2022-11-03T01:27:18.399Z,100.00
2022-11-03T01:29:47.377Z,100.00
2022-11-03T01:32:16.403Z,100.00
2022-11-03T01:34:46.943Z,100.00
2022-11-03T01:37:15.197Z,100.00
2022-11-03T01:39:44.627Z,100.00
2022-11-03T01:42:14.677Z,100.00
2022-11-03T01:44:49.177Z,100.00
2022-11-03T01:47:26.743Z,100.00
2022-11-03T01:50:02.510Z,100.00
2022-11-03T01:52:36.871Z,100.00
2022-11-03T01:55:08.851Z,100.00
2022-11-03T01:57:46.196Z,100.00
2022-11-03T02:00:15.648Z,100.00
2022-11-03T02:02:46.063Z,100.00
2022-11-03T02:05:19.523Z,100.00
2022-11-03T02:07:53.317Z,100.00
2022-11-03T02:10:22.186Z,100.00
2022-11-03T02:12:51.817Z,100.00
2022-11-03T02:15:22.917Z,100.00
2022-11-03T02:17:54.320Z,100.00
2022-11-03T02:20:28.669Z,100.00
2022-11-03T02:23:12.516Z,100.00
2022-11-03T02:25:45.144Z,100.00
2022-11-03T02:28:16.581Z,100.00
2022-11-03T02:30:51.465Z,100.00
2022-11-03T02:33:35.886Z,100.00
2022-11-03T02:36:12.227Z,100.00
2022-11-03T02:38:48.786Z,100.00
2022-11-03T02:41:20.321Z,100.00
2022-11-03T02:43:50.023Z,100.00
2022-11-03T02:46:19.677Z,100.00
2022-11-03T02:48:49.367Z,100.00
2022-11-03T02:51:17.775Z,100.00
2022-11-03T02:53:54.882Z,100.00
2022-11-03T02:56:26.113Z,100.00
2022-11-03T02:59:00.950Z,100.00
2022-11-03T03:01:35.179Z,100.00
2022-11-03T03:04:08.570Z,100.00
2022-11-03T03:06:40.885Z,100.00
2022-11-03T03:09:15.392Z,100.00
2022-11-03T03:11:48.423Z,100.00
2022-11-03T03:14:21.819Z,100.00
2022-11-03T03:17:00.088Z,100.00
2022-11-03T03:19:37.925Z,100.00
2022-11-03T03:22:16.443Z,100.00
2022-11-03T03:24:52.116Z,100.00
2022-11-03T03:27:26.890Z,100.00
2022-11-03T03:30:00.454Z,100.00
2022-11-03T03:32:33.816Z,100.00
2022-11-03T03:35:05.287Z,100.00
2022-11-03T03:37:37.642Z,100.00
2022-11-03T03:40:12.327Z,100.00
2022-11-03T03:42:45.261Z,100.00
2022-11-03T03:45:14.843Z,100.00
2022-11-03T03:47:43.319Z,100.00
2022-11-03T03:50:11.949Z,100.00
2022-11-03T03:52:40.769Z,100.00
2022-11-03T03:55:18.115Z,100.00
2022-11-03T03:57:48.222Z,100.00
2022-11-03T04:00:17.125Z,100.00
2022-11-03T04:02:45.520Z,100.00
2022-11-03T04:05:14.903Z,100.00
2022-11-03T04:07:50.217Z,100.00
2022-11-03T04:10:20.912Z,100.00
2022-11-03T04:13:08.900Z,100.00
2022-11-03T04:15:57.669Z,100.00
2022-11-03T04:18:43.678Z,100.00
2022-11-03T04:21:32.057Z,100.00
2022-11-03T04:24:01.976Z,100.00
2022-11-03T04:26:30.912Z,100.00
2022-11-03T04:29:03.326Z,100.00
2022-11-03T04:31:36.827Z,100.00
2022-11-03T04:34:11.427Z,100.00
2022-11-03T04:36:39.816Z,100.00
2022-11-03T04:39:24.663Z,100.00
2022-11-03T04:41:56.524Z,100.00
2022-11-03T04:44:28.358Z,100.00
2022-11-03T04:46:58.156Z,100.00
2022-11-03T04:49:26.602Z,100.00
2022-11-03T04:51:55.183Z,100.00
2022-11-03T04:54:24.731Z,100.00
2022-11-03T04:56:53.301Z,100.00
2022-11-03T04:59:21.998Z,100.00
2022-11-03T05:01:52.181Z,100.00
2022-11-03T05:04:20.871Z,100.00
2022-11-03T05:06:53.746Z,100.00
2022-11-03T05:09:25.627Z,100.00
2022-11-03T05:11:54.430Z,100.00
2022-11-03T05:14:25.742Z,100.00
2022-11-03T05:16:57.133Z,100.00
2022-11-03T05:19:28.540Z,100.00
2022-11-03T05:21:59.530Z,100.00
2022-11-03T05:24:28.434Z,100.00
2022-11-03T05:27:01.164Z,100.00
2022-11-03T05:29:36.463Z,100.00
2022-11-03T05:32:13.601Z,100.00
2022-11-03T05:34:46.208Z,100.00
2022-11-03T05:37:26.746Z,100.00
2022-11-03T05:39:58.002Z,100.00
2022-11-03T05:42:33.191Z,100.00
2022-11-03T05:45:04.973Z,100.00
2022-11-03T05:47:42.230Z,100.00
2022-11-03T05:50:20.904Z,100.00
2022-11-03T05:52:53.018Z,100.00
2022-11-03T05:55:28.767Z,100.00
2022-11-03T05:57:58.770Z,100.00
2022-11-03T06:00:30.599Z,100.00
2022-11-03T06:03:02.493Z,100.00
2022-11-03T06:05:33.630Z,100.00
2022-11-03T06:08:04.771Z,100.00
2022-11-03T06:10:41.003Z,100.00
2022-11-03T06:13:15.620Z,100.00
2022-11-03T06:15:48.309Z,100.00
2022-11-03T06:18:22.774Z,100.00
2022-11-03T06:20:53.844Z,100.00
2022-11-03T06:23:24.290Z,100.00
2022-11-03T06:25:55.012Z,100.00
2022-11-03T06:28:26.851Z,100.00
2022-11-03T06:30:55.449Z,100.00
2022-11-03T06:33:28.264Z,100.00
2022-11-03T06:36:03.381Z,100.00
2022-11-03T06:38:35.418Z,100.00
2022-11-03T06:41:03.683Z,100.00
2022-11-03T06:43:39.010Z,100.00
2022-11-03T06:46:14.278Z,100.00
2022-11-03T06:48:46.752Z,100.00
2022-11-03T06:51:22.779Z,100.00
2022-11-03T06:53:52.964Z,100.00
2022-11-03T06:56:24.119Z,100.00
2022-11-03T06:58:55.166Z,100.00
2022-11-03T07:01:28.176Z,100.00
2022-11-03T07:04:03.654Z,100.00
2022-11-03T07:06:37.992Z,100.00
2022-11-03T07:09:10.158Z,100.00
2022-11-03T07:11:45.255Z,100.00
2022-11-03T07:14:18.589Z,100.00
2022-11-03T07:16:50.405Z,100.00
2022-11-03T07:19:24.102Z,100.00
2022-11-03T07:21:55.490Z,100.00
2022-11-03T07:24:29.166Z,100.00
2022-11-03T07:27:03.778Z,100.00
2022-11-03T07:29:33.987Z,100.00
2022-11-03T07:32:02.374Z,100.00
2022-11-03T07:34:34.479Z,100.00
2022-11-03T07:37:04.468Z,100.00
2022-11-03T07:39:36.273Z,100.00
2022-11-03T07:42:13.048Z,100.00
2022-11-03T07:44:41.950Z,100.00
2022-11-03T07:47:15.215Z,100.00
2022-11-03T07:49:48.459Z,100.00
2022-11-03T07:52:21.269Z,100.00
2022-11-03T07:54:51.354Z,100.00
2022-11-03T07:57:24.404Z,100.00
2022-11-03T07:59:55.416Z,100.00
2022-11-03T08:02:34.242Z,100.00
2022-11-03T08:05:10.447Z,100.00
2022-11-03T08:07:39.353Z,100.00
2022-11-03T08:10:08.761Z,100.00
2022-11-03T08:12:37.198Z,100.00
2022-11-03T08:15:06.872Z,100.00
2022-11-03T08:17:35.608Z,100.00
2022-11-03T08:20:06.070Z,100.00
2022-11-03T08:22:35.698Z,100.00
2022-11-03T08:25:04.627Z,100.00
2022-11-03T08:27:33.011Z,100.00
2022-11-03T08:30:01.486Z,100.00
2022-11-03T08:32:30.901Z,100.00
2022-11-03T08:34:59.538Z,100.00
2022-11-03T08:37:30.459Z,100.00
2022-11-03T08:39:58.876Z,100.00
2022-11-03T08:42:27.263Z,100.00
2022-11-03T08:44:56.176Z,100.00
2022-11-03T08:47:24.675Z,100.00
2022-11-03T08:49:53.034Z,100.00
2022-11-03T08:52:21.766Z,100.00
2022-11-03T08:54:54.319Z,100.00
2022-11-03T08:57:23.032Z,100.00
2022-11-03T08:59:53.041Z,100.00
2022-11-03T09:02:21.871Z,99.99
2022-11-03T09:04:50.213Z,98.79
2022-11-03T09:07:19.687Z,97.54
2022-11-03T09:12:38.898Z,95.56
2022-11-03T09:15:08.294Z,94.67
2022-11-03T09:17:39.433Z,94.36
2022-11-03T09:20:11.243Z,93.27
2022-11-03T09:22:39.830Z,92.70
2022-11-03T09:25:10.602Z,92.59
2022-11-03T09:27:40.494Z,92.53
2022-11-03T09:30:14.099Z,92.46
2022-11-03T09:32:46.319Z,92.65
2022-11-03T09:35:17.018Z,92.67
2022-11-03T09:37:45.598Z,91.82
2022-11-03T09:40:17.180Z,91.39
2022-11-03T09:42:47.450Z,90.85
2022-11-03T09:45:16.157Z,90.47
2022-11-03T09:47:47.208Z,90.30
2022-11-03T09:50:19.379Z,89.48
2022-11-03T09:52:55.963Z,89.30
2022-11-03T09:55:27.236Z,88.77
2022-11-03T09:58:02.075Z,88.62
2022-11-03T10:00:31.652Z,88.39
2022-11-03T10:02:59.955Z,87.82
2022-11-03T10:05:29.086Z,87.46
2022-11-03T10:08:00.385Z,87.02
2022-11-03T10:10:29.957Z,85.89
2022-11-03T10:13:01.727Z,86.02
2022-11-03T10:15:34.098Z,85.50
2022-11-03T10:18:05.535Z,85.08
2022-11-03T10:20:34.342Z,85.29
2022-11-03T10:23:02.698Z,85.13
2022-11-03T10:25:37.324Z,84.71
2022-11-03T10:28:20.102Z,84.56
2022-11-03T10:31:13.283Z,84.44
2022-11-03T10:33:43.362Z,84.67
2022-11-03T10:36:27.001Z,83.94
2022-11-03T10:38:55.752Z,83.89
2022-11-03T10:41:25.660Z,83.31
2022-11-03T10:44:08.331Z,82.72
2022-11-03T10:46:50.163Z,82.70
2022-11-03T10:49:21.440Z,82.38
2022-11-03T10:51:52.591Z,82.08
2022-11-03T10:54:22.912Z,81.67
2022-11-03T10:56:53.646Z,81.46
2022-11-03T10:59:32.231Z,80.39
2022-11-03T11:02:01.605Z,80.25
2022-11-03T11:04:30.276Z,79.74
2022-11-03T11:06:59.907Z,79.47
2022-11-03T11:09:30.263Z,79.39
2022-11-03T11:12:03.810Z,79.45
2022-11-03T11:14:55.137Z,78.99
2022-11-03T11:18:12.663Z,78.03
2022-11-03T11:20:42.646Z,78.07
2022-11-03T11:23:52.885Z,77.36
2022-11-03T11:26:42.677Z,75.88
2022-11-03T11:29:45.891Z,75.58
2022-11-03T11:32:53.523Z,74.79
2022-11-03T11:36:05.568Z,74.36
2022-11-03T11:39:11.355Z,73.58
2022-11-03T11:42:09.468Z,74.08
2022-11-03T11:45:13.435Z,74.82
2022-11-03T11:47:52.595Z,75.30
2022-11-03T11:50:32.662Z,75.56
2022-11-03T11:53:14.770Z,75.64
2022-11-03T11:55:47.046Z,75.94
2022-11-03T11:58:23.874Z,75.55
2022-11-03T12:01:04.858Z,75.34
2022-11-03T12:03:49.010Z,75.26
2022-11-03T12:06:17.457Z,75.37
2022-11-03T12:08:46.338Z,75.35
2022-11-03T12:11:15.006Z,75.13
2022-11-03T12:13:47.578Z,75.96
2022-11-03T12:16:36.026Z,75.27
2022-11-03T12:19:42.384Z,75.24
2022-11-03T12:22:12.539Z,75.63
2022-11-03T12:24:51.041Z,75.17
2022-11-03T12:27:43.759Z,74.96
2022-11-03T12:30:20.107Z,75.18
2022-11-03T12:32:49.074Z,75.61
2022-11-03T12:35:19.095Z,75.69
2022-11-03T12:37:47.866Z,76.03
2022-11-03T12:40:17.014Z,76.32
2022-11-03T12:42:46.013Z,76.79
2022-11-03T12:45:18.830Z,77.34
2022-11-03T12:47:48.224Z,77.31
2022-11-03T12:50:34.917Z,77.92
2022-11-03T12:53:03.280Z,78.63
2022-11-03T12:55:31.996Z,78.44
2022-11-03T12:58:00.762Z,78.73
2022-11-03T13:00:29.918Z,78.88
2022-11-03T13:02:58.713Z,78.50
2022-11-03T13:05:28.090Z,79.03
2022-11-03T13:07:58.039Z,78.96
2022-11-03T13:10:29.617Z,78.91
2022-11-03T13:12:58.224Z,79.08
2022-11-03T13:15:26.699Z,79.50
2022-11-03T13:18:12.840Z,79.30
2022-11-03T13:20:43.202Z,79.51
2022-11-03T13:23:15.138Z,79.75
2022-11-03T13:25:46.776Z,78.90
2022-11-03T13:28:15.207Z,79.43
2022-11-03T13:30:43.814Z,78.61
2022-11-03T13:33:12.209Z,78.60
2022-11-03T13:35:40.723Z,78.40
2022-11-03T13:38:11.004Z,78.75
2022-11-03T13:41:01.167Z,79.57
2022-11-03T13:43:30.319Z,79.73
2022-11-03T13:46:02.501Z,79.38
2022-11-03T13:49:31.857Z,79.48
2022-11-03T13:51:21.799Z,80.42
2022-11-03T13:59:31.806Z,81.31
2022-11-03T14:04:53.576Z,80.90
2022-11-03T14:07:22.344Z,81.43
2022-11-03T14:09:50.719Z,81.52
2022-11-03T14:12:32.088Z,81.75
2022-11-03T14:15:01.661Z,81.78
2022-11-03T14:17:29.965Z,81.42
2022-11-03T14:20:03.733Z,81.46
2022-11-03T14:22:33.947Z,81.41
2022-11-03T14:25:02.486Z,81.95
2022-11-03T14:27:33.206Z,81.90
2022-11-03T14:30:01.488Z,82.03
2022-11-03T14:32:30.003Z,81.79
2022-11-03T14:34:59.515Z,81.89
2022-11-03T14:37:28.837Z,82.55
2022-11-03T14:39:58.563Z,81.96
2022-11-03T14:42:25.846Z,81.99
2022-11-03T14:44:55.981Z,82.24
2022-11-03T14:47:25.836Z,82.93
2022-11-03T14:49:54.051Z,83.67
2022-11-03T14:52:22.358Z,84.04
2022-11-03T14:54:52.288Z,84.37
2022-11-03T14:57:20.621Z,84.44
2022-11-03T14:59:53.187Z,84.86
2022-11-03T15:02:24.223Z,85.39
2022-11-03T15:04:55.924Z,86.05
2022-11-03T15:07:25.672Z,86.49
2022-11-03T15:09:55.085Z,86.92
2022-11-03T15:12:26.986Z,87.11
2022-11-03T15:14:57.261Z,87.71
2022-11-03T15:17:27.313Z,88.32
2022-11-03T15:19:56.628Z,88.79
2022-11-03T15:25:16.877Z,89.28
2022-11-03T15:27:48.335Z,89.45
2022-11-03T15:30:17.694Z,89.92
2022-11-03T15:32:47.936Z,90.43
2022-11-03T15:35:18.246Z,90.60
2022-11-03T15:37:47.862Z,91.12
2022-11-03T15:40:17.493Z,91.52
2022-11-03T15:42:49.889Z,91.69
2022-11-03T15:45:19.001Z,92.04
2022-11-03T15:47:49.303Z,92.50
2022-11-03T15:50:18.126Z,92.19
2022-11-03T15:52:46.388Z,92.35
2022-11-03T15:55:15.283Z,92.05
2022-11-03T15:57:43.571Z,91.44
2022-11-03T16:00:14.002Z,91.42
2022-11-03T16:02:44.481Z,91.91
2022-11-03T16:05:15.151Z,92.21
2022-11-03T16:07:46.070Z,92.26
2022-11-03T16:10:14.511Z,92.67
2022-11-03T16:12:44.310Z,92.63
2022-11-03T16:15:12.670Z,92.35
2022-11-03T16:17:45.352Z,92.10
2022-11-03T16:20:16.465Z,91.87
2022-11-03T16:22:45.241Z,91.46
2022-11-03T16:25:16.602Z,91.24
2022-11-03T16:27:49.492Z,91.23
2022-11-03T16:30:18.787Z,91.48
2022-11-03T16:32:49.615Z,90.92
2022-11-03T16:35:23.225Z,91.02
2022-11-03T16:37:51.596Z,90.50
2022-11-03T16:40:20.351Z,90.77
2022-11-03T16:42:49.702Z,90.70
2022-11-03T16:45:20.064Z,90.82
2022-11-03T16:47:50.423Z,90.92
2022-11-03T16:50:20.895Z,91.04
2022-11-03T16:52:50.741Z,90.46
2022-11-03T16:55:20.509Z,90.38
2022-11-03T16:57:50.511Z,90.47
2022-11-03T17:00:21.814Z,90.79
2022-11-03T17:02:51.464Z,90.56
2022-11-03T17:05:22.093Z,89.64
2022-11-03T17:07:54.238Z,89.85
2022-11-03T17:10:22.775Z,90.12
2022-11-03T17:12:51.323Z,90.08
2022-11-03T17:15:19.718Z,90.05
2022-11-03T17:17:48.390Z,90.52
2022-11-03T17:20:20.849Z,90.29
2022-11-03T17:22:52.966Z,90.39
2022-11-03T17:25:21.258Z,90.58
2022-11-03T17:27:53.299Z,90.82
2022-11-03T17:30:23.425Z,90.15
2022-11-03T17:32:54.903Z,90.32
2022-11-03T17:35:33.649Z,90.42
2022-11-03T17:38:14.107Z,90.30
2022-11-03T17:40:43.752Z,90.63
2022-11-03T17:43:21.089Z,90.70
2022-11-03T17:45:49.972Z,90.57
2022-11-03T17:48:20.538Z,90.59
2022-11-03T17:50:51.631Z,90.21
2022-11-03T17:53:38.494Z,90.13
2022-11-03T17:56:29.158Z,90.42
2022-11-03T17:58:59.546Z,90.66
2022-11-03T18:01:29.362Z,90.83
2022-11-03T18:03:58.717Z,90.41
2022-11-03T18:06:26.952Z,90.14
2022-11-03T18:08:59.492Z,90.25
2022-11-03T18:11:47.908Z,90.48
2022-11-03T18:14:20.189Z,90.59
2022-11-03T18:16:49.479Z,90.09
2022-11-03T18:19:20.605Z,89.78
2022-11-03T18:21:52.261Z,89.69
2022-11-03T18:24:22.754Z,89.73
2022-11-03T18:26:51.204Z,89.70
2022-11-03T18:29:19.707Z,89.72
2022-11-03T18:31:50.820Z,89.44
2022-11-03T18:34:23.019Z,89.23
2022-11-03T18:36:52.808Z,89.44
2022-11-03T18:39:26.969Z,89.39
2022-11-03T18:41:58.583Z,89.46
2022-11-03T18:44:29.834Z,88.98
2022-11-03T18:46:59.867Z,88.56
2022-11-03T18:49:33.097Z,88.50
2022-11-03T18:52:09.863Z,88.93
2022-11-03T18:54:42.285Z,88.83
2022-11-03T18:57:12.362Z,88.43
2022-11-03T18:59:44.683Z,88.59
2022-11-03T19:02:18.635Z,88.61
2022-11-03T19:04:49.082Z,88.40
2022-11-03T19:07:24.207Z,88.40
2022-11-03T19:09:55.011Z,88.33
2022-11-03T19:12:23.755Z,88.49
2022-11-03T19:14:52.518Z,88.58
2022-11-03T19:17:24.927Z,88.63
2022-11-03T19:19:54.594Z,88.65
2022-11-03T19:22:24.370Z,88.89
2022-11-03T19:24:54.875Z,88.90
2022-11-03T19:27:27.857Z,89.05
2022-11-03T19:29:58.213Z,89.10
2022-11-03T19:32:30.636Z,88.93
2022-11-03T19:35:02.817Z,88.90
2022-11-03T19:37:35.785Z,89.23
2022-11-03T19:40:09.400Z,89.58
2022-11-03T19:42:37.212Z,89.36
2022-11-03T19:45:09.217Z,89.39
2022-11-03T19:47:47.831Z,89.42
2022-11-03T19:50:23.084Z,90.00
2022-11-03T19:52:51.831Z,90.52
2022-11-03T19:55:24.625Z,90.54
2022-11-03T19:57:53.260Z,90.60
2022-11-03T20:00:24.182Z,90.73
2022-11-03T20:02:52.686Z,90.88
2022-11-03T20:05:22.033Z,91.35
2022-11-03T20:07:50.566Z,91.58
2022-11-03T20:10:21.350Z,91.64
2022-11-03T20:12:50.233Z,91.66
2022-11-03T20:15:20.870Z,91.70
2022-11-03T20:17:50.951Z,91.98
2022-11-03T20:20:22.722Z,92.17
2022-11-03T20:22:56.097Z,92.66
2022-11-03T20:25:28.555Z,93.14
2022-11-03T20:27:59.419Z,93.58
2022-11-03T20:30:29.659Z,93.64
2022-11-03T20:32:57.849Z,94.07
2022-11-03T20:35:28.413Z,94.30
2022-11-03T20:37:59.965Z,94.53
2022-11-03T20:40:33.064Z,94.68
2022-11-03T20:43:03.697Z,95.02
2022-11-03T20:45:32.724Z,95.31
2022-11-03T20:48:01.284Z,95.70
2022-11-03T20:50:31.695Z,96.01
2022-11-03T20:53:00.693Z,96.42
2022-11-03T20:55:32.239Z,96.75
2022-11-03T20:58:00.860Z,97.24
2022-11-03T21:00:32.038Z,97.46
2022-11-03T21:03:00.712Z,97.87
2022-11-03T21:05:29.794Z,98.14
2022-11-03T21:07:59.699Z,98.22
2022-11-03T21:10:30.842Z,98.36
2022-11-03T21:13:01.458Z,98.42
2022-11-03T21:16:10.624Z,98.69
2022-11-03T21:18:53.029Z,99.09
2022-11-03T21:21:22.713Z,99.34
2022-11-03T21:23:51.027Z,99.29
2022-11-03T21:26:19.654Z,99.46
2022-11-03T21:28:49.634Z,99.31
2022-11-03T21:31:18.006Z,99.76
2022-11-03T21:33:49.443Z,100.00
2022-11-03T21:36:18.200Z,100.00
2022-11-03T21:38:46.615Z,100.00
2022-11-03T21:41:32.285Z,100.00
2022-11-03T21:44:19.490Z,100.00
2022-11-03T21:46:49.359Z,100.00
2022-11-03T21:49:35.644Z,100.00
2022-11-03T21:52:04.270Z,100.00
2022-11-03T21:54:34.562Z,100.00
2022-11-03T21:57:03.083Z,100.00
2022-11-03T21:59:32.995Z,100.00
2022-11-03T22:02:02.467Z,100.00
2022-11-03T22:04:32.282Z,100.00
2022-11-03T22:07:02.097Z,100.00
2022-11-03T22:09:30.519Z,100.00
2022-11-03T22:11:58.978Z,100.00
2022-11-03T22:14:47.776Z,100.00
2022-11-03T22:17:16.773Z,100.00
2022-11-03T22:20:02.751Z,100.00
2022-11-03T22:22:49.176Z,100.00
2022-11-03T22:25:35.608Z,100.00
2022-11-03T22:28:04.143Z,100.00
2022-11-03T22:30:52.718Z,100.00
2022-11-03T22:33:22.514Z,100.00
2022-11-03T22:36:08.300Z,100.00
2022-11-03T22:38:55.283Z,100.00
2022-11-03T22:41:41.501Z,100.00
2022-11-03T22:44:27.471Z,100.00
2022-11-03T22:46:58.117Z,100.00
2022-11-03T22:49:29.315Z,100.00
2022-11-03T22:51:57.655Z,100.00
2022-11-03T22:54:26.158Z,100.00
2022-11-03T22:56:54.414Z,100.00
2022-11-03T22:59:23.051Z,100.00
2022-11-03T23:01:51.514Z,100.00
2022-11-03T23:04:20.158Z,100.00
2022-11-03T23:06:50.785Z,100.00
2022-11-03T23:09:19.839Z,100.00
2022-11-03T23:11:48.348Z,100.00
2022-11-03T23:14:17.173Z,100.00
2022-11-03T23:16:46.893Z,100.00
2022-11-03T23:19:34.706Z,100.00
2022-11-03T23:22:04.574Z,100.00
2022-11-03T23:24:54.399Z,100.00
2022-11-03T23:27:22.815Z,100.00
2022-11-03T23:29:51.471Z,100.00
2022-11-03T23:32:21.039Z,100.00
2022-11-03T23:34:50.149Z,100.00
2022-11-03T23:37:20.349Z,100.00
2022-11-03T23:39:48.760Z,100.00
2022-11-03T23:42:17.153Z,100.00
2022-11-03T23:45:08.437Z,100.00
2022-11-03T23:47:54.600Z,100.00
2022-11-03T23:50:23.202Z,100.00
2022-11-03T23:52:53.344Z,100.00
2022-11-03T23:55:21.582Z,100.00
2022-11-03T23:58:07.968Z,100.00
